createdAt,value
2023-10-10T00:00:03.098Z,42.18
2023-10-10T00:01:04.574Z,42.51
2023-10-10T00:02:06.179Z,42.30
2023-10-10T00:03:07.821Z,42.45
2023-10-10T00:04:09.384Z,42.57
2023-10-10T00:05:10.890Z,42.38
2023-10-10T00:06:12.412Z,42.30
2023-10-10T00:07:13.943Z,42.31
2023-10-10T00:08:15.407Z,42.13
2023-10-10T00:09:18.926Z,42.44
2023-10-10T00:10:21.859Z,42.51
2023-10-10T00:11:23.390Z,42.49
2023-10-10T00:12:24.897Z,42.12
2023-10-10T00:13:26.382Z,42.38
2023-10-10T00:14:27.881Z,42.35
2023-10-10T00:15:29.442Z,42.38
2023-10-10T00:16:31.057Z,42.32
2023-10-10T00:17:32.736Z,42.76
2023-10-10T00:18:34.293Z,42.17
2023-10-10T00:19:35.794Z,42.90
2023-10-10T00:20:37.299Z,42.75
2023-10-10T00:21:38.773Z,42.79
2023-10-10T00:22:40.250Z,42.50
2023-10-10T00:23:41.745Z,42.85
2023-10-10T00:24:43.231Z,42.28
2023-10-10T00:25:44.741Z,42.89
2023-10-10T00:26:46.224Z,42.33
2023-10-10T00:27:47.870Z,42.44
2023-10-10T00:28:49.350Z,42.93
2023-10-10T00:29:50.827Z,42.96
2023-10-10T00:30:52.315Z,42.73
2023-10-10T00:31:53.827Z,42.71
2023-10-10T00:32:55.414Z,42.63
2023-10-10T00:33:56.934Z,42.83
2023-10-10T00:34:58.506Z,42.94
2023-10-10T00:35:59.970Z,42.93
2023-10-10T00:37:01.431Z,43.12
2023-10-10T00:38:02.941Z,43.03
2023-10-10T00:39:04.473Z,42.68
2023-10-10T00:40:05.975Z,43.21
2023-10-10T00:41:07.522Z,42.68
2023-10-10T00:42:09.028Z,43.07
2023-10-10T00:43:11.885Z,42.79
2023-10-10T00:44:13.415Z,43.30
2023-10-10T00:45:14.876Z,43.08
2023-10-10T00:46:16.353Z,43.11
2023-10-10T00:47:17.920Z,42.85
2023-10-10T00:48:19.511Z,43.21
2023-10-10T00:49:21.070Z,42.89
2023-10-10T00:50:22.639Z,43.30
2023-10-10T00:51:24.117Z,43.23
2023-10-10T00:52:25.596Z,43.63
2023-10-10T00:53:27.103Z,43.35
2023-10-10T00:54:30.250Z,43.26
2023-10-10T00:55:31.709Z,43.40
2023-10-10T00:56:33.209Z,43.03
2023-10-10T00:57:38.324Z,43.69
2023-10-10T00:58:39.820Z,43.54
2023-10-10T00:59:41.331Z,43.55
2023-10-10T01:00:42.836Z,43.56
2023-10-10T01:01:44.377Z,43.16
2023-10-10T01:02:45.975Z,43.16
2023-10-10T01:03:47.776Z,43.32
2023-10-10T01:04:49.388Z,43.21
2023-10-10T01:05:50.852Z,43.14
2023-10-10T01:06:52.330Z,43.52
2023-10-10T01:07:53.829Z,43.38
2023-10-10T01:08:55.362Z,43.20
2023-10-10T01:09:56.864Z,43.56
2023-10-10T01:11:59.866Z,43.82
2023-10-10T01:13:01.338Z,43.81
2023-10-10T01:14:02.895Z,43.51
2023-10-10T01:15:04.451Z,43.35
2023-10-10T01:16:05.915Z,43.72
2023-10-10T01:17:08.813Z,43.62
2023-10-10T01:18:10.476Z,44.09
2023-10-10T01:19:12.110Z,44.16
2023-10-10T01:20:13.658Z,44.02
2023-10-10T01:21:15.147Z,44.16
2023-10-10T01:22:16.617Z,44.42
2023-10-10T01:23:18.195Z,43.94
2023-10-10T01:24:19.738Z,44.32
2023-10-10T01:25:21.239Z,44.29
2023-10-10T01:26:22.870Z,44.00
2023-10-10T01:28:42.616Z,44.36
2023-10-10T01:29:44.233Z,44.24
2023-10-10T01:30:45.716Z,44.29
2023-10-10T01:31:47.224Z,44.56
2023-10-10T01:32:48.733Z,44.44
2023-10-10T01:33:50.217Z,44.42
2023-10-10T01:34:51.740Z,44.50
2023-10-10T01:35:53.192Z,44.43
2023-10-10T01:36:54.734Z,44.34
2023-10-10T01:37:56.572Z,44.08
2023-10-10T01:38:58.241Z,44.03
2023-10-10T01:40:00.172Z,44.53
2023-10-10T01:41:01.687Z,44.53
2023-10-10T01:42:03.179Z,44.38
2023-10-10T01:43:04.817Z,44.50
2023-10-10T01:44:06.391Z,44.30
2023-10-10T01:45:08.022Z,44.20
2023-10-10T01:46:09.594Z,44.16
2023-10-10T01:47:11.146Z,44.22
2023-10-10T01:48:12.759Z,44.20
2023-10-10T01:49:14.441Z,44.07
2023-10-10T01:50:16.307Z,44.32
2023-10-10T01:51:17.791Z,44.05
2023-10-10T01:52:19.277Z,44.01
2023-10-10T01:53:20.791Z,43.88
2023-10-10T01:54:22.310Z,44.41
2023-10-10T01:55:23.806Z,44.27
2023-10-10T01:56:25.328Z,44.06
2023-10-10T01:57:26.806Z,44.05
2023-10-10T01:58:28.287Z,43.84
2023-10-10T01:59:29.824Z,44.39
2023-10-10T02:00:31.446Z,44.18
2023-10-10T02:01:33.064Z,43.88
2023-10-10T02:02:34.685Z,44.19
2023-10-10T02:03:36.406Z,44.40
2023-10-10T02:04:38.040Z,44.12
2023-10-10T02:05:39.536Z,44.43
2023-10-10T02:06:40.999Z,43.93
2023-10-10T02:07:42.485Z,44.27
2023-10-10T02:08:43.944Z,44.15
2023-10-10T02:09:45.421Z,44.35
2023-10-10T02:10:47.005Z,44.10
2023-10-10T02:11:48.472Z,44.36
2023-10-10T02:12:49.949Z,44.39
2023-10-10T02:13:51.440Z,44.22
2023-10-10T02:14:59.670Z,44.74
2023-10-10T02:16:01.187Z,44.33
2023-10-10T02:17:02.712Z,44.94
2023-10-10T02:18:04.212Z,44.82
2023-10-10T02:19:05.756Z,44.38
2023-10-10T02:20:07.296Z,44.80
2023-10-10T02:21:08.835Z,44.42
2023-10-10T02:22:10.311Z,44.68
2023-10-10T02:23:11.810Z,44.53
2023-10-10T02:24:13.304Z,44.72
2023-10-10T02:25:14.803Z,44.72
2023-10-10T02:26:16.339Z,44.88
2023-10-10T02:27:17.837Z,44.95
2023-10-10T02:28:19.315Z,45.13
2023-10-10T02:29:20.809Z,44.98
2023-10-10T02:30:22.305Z,45.13
2023-10-10T02:31:23.919Z,44.74
2023-10-10T02:32:25.486Z,44.61
2023-10-10T02:33:27.075Z,45.15
2023-10-10T02:34:28.548Z,44.59
2023-10-10T02:35:30.009Z,45.03
2023-10-10T02:36:31.576Z,45.13
2023-10-10T02:37:33.339Z,45.17
2023-10-10T02:38:34.979Z,44.88
2023-10-10T02:39:36.519Z,45.25
2023-10-10T02:40:38.123Z,45.32
2023-10-10T02:41:39.960Z,45.17
2023-10-10T02:42:41.624Z,44.88
2023-10-10T02:43:46.049Z,45.03
2023-10-10T02:44:47.587Z,45.05
2023-10-10T02:45:49.124Z,44.88
2023-10-10T02:46:50.639Z,45.03
2023-10-10T02:47:52.205Z,45.29
2023-10-10T02:48:53.766Z,44.99
2023-10-10T02:49:55.249Z,45.24
2023-10-10T02:50:56.738Z,45.21
2023-10-10T02:51:58.633Z,45.36
2023-10-10T02:53:00.155Z,45.14
2023-10-10T02:54:01.690Z,45.47
2023-10-10T02:55:03.236Z,45.52
2023-10-10T02:56:04.733Z,45.30
2023-10-10T02:57:06.287Z,45.09
2023-10-10T02:58:07.759Z,45.48
2023-10-10T02:59:09.285Z,45.74
2023-10-10T03:00:10.766Z,45.41
2023-10-10T03:01:12.222Z,45.76
2023-10-10T03:02:13.852Z,45.51
2023-10-10T03:03:15.388Z,45.60
2023-10-10T03:04:16.996Z,45.32
2023-10-10T03:05:18.760Z,45.49
2023-10-10T03:06:20.219Z,45.56
2023-10-10T03:07:21.727Z,45.96
2023-10-10T03:08:23.393Z,45.91
2023-10-10T03:09:24.914Z,45.74
2023-10-10T03:10:26.492Z,45.91
2023-10-10T03:11:28.017Z,45.62
2023-10-10T03:12:29.552Z,45.70
2023-10-10T03:13:31.061Z,45.49
2023-10-10T03:14:32.587Z,45.55
2023-10-10T03:15:34.161Z,46.04
2023-10-10T03:16:35.770Z,45.84
2023-10-10T03:17:37.528Z,46.03
2023-10-10T03:18:39.106Z,45.96
2023-10-10T03:19:40.604Z,45.82
2023-10-10T03:20:42.136Z,45.97
2023-10-10T03:21:43.702Z,45.56
2023-10-10T03:22:45.243Z,45.66
2023-10-10T03:23:46.819Z,46.03
2023-10-10T03:24:48.297Z,46.10
2023-10-10T03:25:50.880Z,45.61
2023-10-10T03:26:52.417Z,46.02
2023-10-10T03:27:53.958Z,45.97
2023-10-10T03:28:55.432Z,46.03
2023-10-10T03:29:56.948Z,45.75
2023-10-10T03:30:58.454Z,45.46
2023-10-10T03:31:59.999Z,45.49
2023-10-10T03:33:01.592Z,46.03
2023-10-10T03:34:03.182Z,45.57
2023-10-10T03:35:04.687Z,45.83
2023-10-10T03:36:06.246Z,45.73
2023-10-10T03:37:07.732Z,46.01
2023-10-10T03:38:09.231Z,46.05
2023-10-10T03:39:10.712Z,46.02
2023-10-10T03:40:12.151Z,45.61
2023-10-10T03:41:13.611Z,46.04
2023-10-10T03:42:15.119Z,45.53
2023-10-10T03:43:16.604Z,45.67
2023-10-10T03:44:18.079Z,45.72
2023-10-10T03:45:19.596Z,45.96
2023-10-10T03:46:21.121Z,45.64
2023-10-10T03:47:22.675Z,45.83
2023-10-10T03:48:24.252Z,46.16
2023-10-10T03:49:25.746Z,45.62
2023-10-10T03:50:27.318Z,45.80
2023-10-10T03:51:28.792Z,46.04
2023-10-10T03:52:30.312Z,45.66
2023-10-10T03:53:31.875Z,45.67
2023-10-10T03:54:33.527Z,46.17
2023-10-10T03:55:35.036Z,46.05
2023-10-10T03:56:36.770Z,45.78
2023-10-10T03:57:38.282Z,45.76
2023-10-10T03:58:39.751Z,46.12
2023-10-10T03:59:41.276Z,45.92
2023-10-10T04:00:42.807Z,45.89
2023-10-10T04:01:44.330Z,45.86
2023-10-10T04:02:45.937Z,46.24
2023-10-10T04:03:47.634Z,45.79
2023-10-10T04:04:49.188Z,46.22
2023-10-10T04:05:50.631Z,46.13
2023-10-10T04:06:52.089Z,46.10
2023-10-10T04:07:53.557Z,45.98
2023-10-10T04:08:55.120Z,46.40
2023-10-10T04:09:56.622Z,46.22
2023-10-10T04:10:58.090Z,46.14
2023-10-10T04:11:59.563Z,46.28
2023-10-10T04:13:01.101Z,46.36
2023-10-10T04:14:02.675Z,46.47
2023-10-10T04:15:04.226Z,46.28
2023-10-10T04:16:05.782Z,46.11
2023-10-10T04:17:07.642Z,46.42
2023-10-10T04:18:09.791Z,46.50
2023-10-10T04:19:14.558Z,46.26
2023-10-10T04:20:16.115Z,46.41
2023-10-10T04:21:17.732Z,46.51
2023-10-10T04:22:19.235Z,46.48
2023-10-10T04:23:20.770Z,45.94
2023-10-10T04:24:22.255Z,46.55
2023-10-10T04:25:23.723Z,46.45
2023-10-10T04:26:25.264Z,46.44
2023-10-10T04:27:26.797Z,46.18
2023-10-10T04:28:28.344Z,45.97
2023-10-10T04:29:30.029Z,46.45
2023-10-10T04:30:31.589Z,46.25
2023-10-10T04:31:33.162Z,46.45
2023-10-10T04:32:34.764Z,46.38
2023-10-10T04:33:36.301Z,46.42
2023-10-10T04:34:37.813Z,46.34
2023-10-10T04:35:39.287Z,46.47
2023-10-10T04:36:40.763Z,46.51
2023-10-10T04:37:42.296Z,46.72
2023-10-10T04:38:43.845Z,46.62
2023-10-10T04:39:45.399Z,46.29
2023-10-10T04:40:46.862Z,46.54
2023-10-10T04:41:48.327Z,46.35
2023-10-10T04:42:49.830Z,46.56
2023-10-10T04:43:53.033Z,46.45
2023-10-10T04:44:56.206Z,46.21
2023-10-10T04:45:57.697Z,46.47
2023-10-10T04:46:59.179Z,46.63
2023-10-10T04:48:00.733Z,46.19
2023-10-10T04:49:02.331Z,46.76
2023-10-10T04:50:03.857Z,46.71
2023-10-10T04:51:05.357Z,46.32
2023-10-10T04:52:06.900Z,46.70
2023-10-10T04:53:08.429Z,46.75
2023-10-10T04:54:09.931Z,46.57
2023-10-10T04:55:11.430Z,46.77
2023-10-10T04:56:12.905Z,46.80
2023-10-10T04:57:14.413Z,46.54
2023-10-10T04:58:15.930Z,46.54
2023-10-10T04:59:17.471Z,46.79
2023-10-10T05:00:19.009Z,46.49
2023-10-10T05:01:20.506Z,46.72
2023-10-10T05:02:22.071Z,46.78
2023-10-10T05:03:23.672Z,46.91
2023-10-10T05:04:27.182Z,46.53
2023-10-10T05:05:28.822Z,46.84
2023-10-10T05:06:30.334Z,47.05
2023-10-10T05:07:31.840Z,46.71
2023-10-10T05:08:33.444Z,46.92
2023-10-10T05:09:34.989Z,46.65
2023-10-10T05:10:36.534Z,46.93
2023-10-10T05:11:38.034Z,46.66
2023-10-10T05:12:39.548Z,47.02
2023-10-10T05:13:41.153Z,46.58
2023-10-10T05:14:42.697Z,46.86
2023-10-10T05:15:44.199Z,46.70
2023-10-10T05:16:45.665Z,46.73
2023-10-10T05:17:47.168Z,46.80
2023-10-10T05:18:50.632Z,46.98
2023-10-10T05:19:52.386Z,47.28
2023-10-10T05:20:53.917Z,47.01
2023-10-10T05:21:55.432Z,47.25
2023-10-10T05:22:56.994Z,46.98
2023-10-10T05:23:58.455Z,46.79
2023-10-10T05:25:02.002Z,47.22
2023-10-10T05:26:03.606Z,46.71
2023-10-10T05:27:05.154Z,46.95
2023-10-10T05:28:06.597Z,46.64
2023-10-10T05:29:08.129Z,47.15
2023-10-10T05:30:09.639Z,46.84
2023-10-10T05:31:11.333Z,46.85
2023-10-10T05:32:12.925Z,47.16
2023-10-10T05:33:14.539Z,47.01
2023-10-10T05:34:16.229Z,46.99
2023-10-10T05:35:18.041Z,47.06
2023-10-10T05:36:19.646Z,47.41
2023-10-10T05:37:21.175Z,47.19
2023-10-10T05:38:22.668Z,47.31
2023-10-10T05:39:24.159Z,47.20
2023-10-10T05:40:25.660Z,47.49
2023-10-10T05:41:27.183Z,47.34
2023-10-10T05:42:28.720Z,47.70
2023-10-10T05:43:30.189Z,47.30
2023-10-10T05:44:31.740Z,47.70
2023-10-10T05:45:33.266Z,47.31
2023-10-10T05:46:34.820Z,47.35
2023-10-10T05:47:36.415Z,47.46
2023-10-10T05:48:37.984Z,47.50
2023-10-10T05:49:39.460Z,47.58
2023-10-10T05:50:40.986Z,47.48
2023-10-10T05:51:42.657Z,47.50
2023-10-10T05:52:44.151Z,47.41
2023-10-10T05:53:45.763Z,47.53
2023-10-10T05:54:47.218Z,47.71
2023-10-10T05:55:48.677Z,47.58
2023-10-10T05:56:50.174Z,47.92
2023-10-10T05:57:51.746Z,47.94
2023-10-10T05:58:55.069Z,47.98
2023-10-10T05:59:56.789Z,48.01
2023-10-10T06:00:58.284Z,47.85
2023-10-10T06:01:59.782Z,47.77
2023-10-10T06:03:01.416Z,48.05
2023-10-10T06:04:03.007Z,47.78
2023-10-10T06:05:04.574Z,47.90
2023-10-10T06:06:06.068Z,47.97
2023-10-10T06:07:07.531Z,48.12
2023-10-10T06:08:09.022Z,48.01
2023-10-10T06:09:10.498Z,47.94
2023-10-10T06:10:12.000Z,48.11
2023-10-10T06:11:13.495Z,48.22
2023-10-10T06:12:15.450Z,48.12
2023-10-10T06:13:17.190Z,48.00
2023-10-10T06:14:18.857Z,48.04
2023-10-10T06:15:20.626Z,47.98
2023-10-10T06:16:22.168Z,48.07
2023-10-10T06:17:23.772Z,48.21
2023-10-10T06:18:25.368Z,48.16
2023-10-10T06:19:26.900Z,48.34
2023-10-10T06:20:28.478Z,48.37
2023-10-10T06:21:29.960Z,48.29
2023-10-10T06:22:31.445Z,48.20
2023-10-10T06:23:32.892Z,48.65
2023-10-10T06:24:34.409Z,48.48
2023-10-10T06:25:35.861Z,48.49
2023-10-10T06:26:37.367Z,48.59
2023-10-10T06:27:39.314Z,48.62
2023-10-10T06:28:40.852Z,48.51
2023-10-10T06:29:42.383Z,48.50
2023-10-10T06:30:43.888Z,48.38
2023-10-10T06:31:45.439Z,48.75
2023-10-10T06:32:47.473Z,48.54
2023-10-10T06:33:49.235Z,48.69
2023-10-10T06:34:51.115Z,48.99
2023-10-10T06:35:52.646Z,48.75
2023-10-10T06:36:54.157Z,49.12
2023-10-10T06:37:55.701Z,48.86
2023-10-10T06:38:57.231Z,48.94
2023-10-10T06:39:58.769Z,49.05
2023-10-10T06:41:00.256Z,48.94
2023-10-10T06:42:01.698Z,49.14
2023-10-10T06:43:03.466Z,48.93
2023-10-10T06:44:07.136Z,48.78
2023-10-10T06:45:08.668Z,48.96
2023-10-10T06:46:10.210Z,48.99
2023-10-10T06:47:11.739Z,48.88
2023-10-10T06:48:13.285Z,49.07
2023-10-10T06:49:14.771Z,49.10
2023-10-10T06:50:16.304Z,49.34
2023-10-10T06:51:17.818Z,49.15
2023-10-10T06:52:19.423Z,49.03
2023-10-10T06:53:21.324Z,48.97
2023-10-10T06:54:22.808Z,49.16
2023-10-10T06:55:24.271Z,49.40
2023-10-10T06:56:25.802Z,49.40
2023-10-10T06:57:27.277Z,49.66
2023-10-10T06:58:28.928Z,49.59
2023-10-10T06:59:30.777Z,49.39
2023-10-10T07:00:32.693Z,49.70
2023-10-10T07:01:34.163Z,49.68
2023-10-10T07:02:35.701Z,49.88
2023-10-10T07:03:37.292Z,49.97
2023-10-10T07:04:38.874Z,49.91
2023-10-10T07:05:40.418Z,49.70
2023-10-10T07:06:41.941Z,49.91
2023-10-10T07:07:43.413Z,50.06
2023-10-10T07:08:44.972Z,50.22
2023-10-10T07:09:46.477Z,50.16
2023-10-10T07:10:47.989Z,50.00
2023-10-10T07:11:49.464Z,50.03
2023-10-10T07:12:50.914Z,50.25
2023-10-10T07:13:52.388Z,49.88
2023-10-10T07:14:53.939Z,50.03
2023-10-10T07:15:55.574Z,50.07
2023-10-10T07:16:57.125Z,49.97
2023-10-10T07:17:58.675Z,50.26
2023-10-10T07:19:00.252Z,50.48
2023-10-10T07:20:02.105Z,50.17
2023-10-10T07:21:04.198Z,50.55
2023-10-10T07:22:05.903Z,50.28
2023-10-10T07:23:07.386Z,50.29
2023-10-10T07:24:08.871Z,50.59
2023-10-10T07:25:10.375Z,50.29
2023-10-10T07:26:11.931Z,50.21
2023-10-10T07:27:13.935Z,50.24
2023-10-10T07:28:15.691Z,50.53
2023-10-10T07:29:17.232Z,50.15
2023-10-10T07:30:18.763Z,50.53
2023-10-10T07:31:20.343Z,50.52
2023-10-10T07:32:21.811Z,50.46
2023-10-10T07:33:23.347Z,50.67
2023-10-10T07:34:24.866Z,50.64
2023-10-10T07:35:26.507Z,50.60
2023-10-10T07:36:28.202Z,50.61
2023-10-10T07:37:29.677Z,50.96
2023-10-10T07:38:33.712Z,50.78
2023-10-10T07:39:35.291Z,50.90
2023-10-10T07:40:36.762Z,51.04
2023-10-10T07:41:38.309Z,50.66
2023-10-10T07:42:39.819Z,51.17
2023-10-10T07:43:41.289Z,50.67
2023-10-10T07:44:42.797Z,50.82
2023-10-10T07:45:44.283Z,50.76
2023-10-10T07:46:45.841Z,50.99
2023-10-10T07:47:47.390Z,50.74
2023-10-10T07:48:48.943Z,50.96
2023-10-10T07:49:50.542Z,50.88
2023-10-10T07:50:52.036Z,51.27
2023-10-10T07:51:53.533Z,50.94
2023-10-10T07:52:55.039Z,50.82
2023-10-10T07:53:56.515Z,51.05
2023-10-10T07:54:57.993Z,50.37
2023-10-10T07:55:59.468Z,50.81
2023-10-10T07:57:02.405Z,50.22
2023-10-10T07:58:04.305Z,50.41
2023-10-10T07:59:06.051Z,50.58
2023-10-10T08:00:07.634Z,50.00
2023-10-10T08:01:09.208Z,50.51
2023-10-10T08:02:10.730Z,50.20
2023-10-10T08:03:12.349Z,50.09
2023-10-10T08:04:16.532Z,50.25
2023-10-10T08:05:19.955Z,49.64
2023-10-10T08:06:21.582Z,49.95
2023-10-10T08:07:23.081Z,49.19
2023-10-10T08:08:24.592Z,49.46
2023-10-10T08:09:26.112Z,49.09
2023-10-10T08:10:27.625Z,48.98
2023-10-10T08:11:29.184Z,48.90
2023-10-10T08:12:30.720Z,48.88
2023-10-10T08:13:32.201Z,48.34
2023-10-10T08:14:33.676Z,48.35
2023-10-10T08:15:35.242Z,48.10
2023-10-10T08:16:36.745Z,48.40
2023-10-10T08:17:38.341Z,47.83
2023-10-10T08:18:39.982Z,48.04
2023-10-10T08:19:42.059Z,47.96
2023-10-10T08:20:43.591Z,47.82
2023-10-10T08:21:45.097Z,47.88
2023-10-10T08:22:46.634Z,47.73
2023-10-10T08:23:48.219Z,47.80
2023-10-10T08:24:49.765Z,47.84
2023-10-10T08:25:51.275Z,47.78
2023-10-10T08:26:53.148Z,47.41
2023-10-10T08:27:54.735Z,47.25
2023-10-10T08:28:56.204Z,47.01
2023-10-10T08:29:57.677Z,47.08
2023-10-10T08:30:59.340Z,47.37
2023-10-10T08:32:00.830Z,46.70
2023-10-10T08:33:02.416Z,46.68
2023-10-10T08:34:03.971Z,46.76
2023-10-10T08:35:05.457Z,46.76
2023-10-10T08:36:06.941Z,46.58
2023-10-10T08:37:08.411Z,47.11
2023-10-10T08:38:09.951Z,46.75
2023-10-10T08:39:11.447Z,46.77
2023-10-10T08:40:12.900Z,46.09
2023-10-10T08:41:14.458Z,46.41
2023-10-10T08:42:16.031Z,45.95
2023-10-10T08:43:17.572Z,45.86
2023-10-10T08:44:19.228Z,45.54
2023-10-10T08:45:20.779Z,45.88
2023-10-10T08:46:22.268Z,45.93
2023-10-10T08:47:23.784Z,45.86
2023-10-10T08:48:25.351Z,45.39
2023-10-10T08:49:26.858Z,45.42
2023-10-10T08:50:28.382Z,45.45
2023-10-10T08:51:29.851Z,45.38
2023-10-10T08:52:31.401Z,44.48
2023-10-10T08:53:32.964Z,45.14
2023-10-10T08:54:34.480Z,45.05
2023-10-10T08:55:39.873Z,44.89
2023-10-10T08:56:41.926Z,44.63
2023-10-10T08:57:43.444Z,44.48
2023-10-10T08:58:44.902Z,44.76
2023-10-10T08:59:46.451Z,44.40
2023-10-10T09:00:49.931Z,43.71
2023-10-10T09:01:51.746Z,43.33
2023-10-10T09:02:53.385Z,43.63
2023-10-10T09:03:55.027Z,43.02
2023-10-10T09:04:56.540Z,43.28
2023-10-10T09:05:57.998Z,42.62
2023-10-10T09:06:59.559Z,42.44
2023-10-10T09:08:01.132Z,42.67
2023-10-10T09:09:02.601Z,42.47
2023-10-10T09:10:04.089Z,42.35
2023-10-10T09:11:05.563Z,41.63
2023-10-10T09:12:07.098Z,41.58
2023-10-10T09:13:08.601Z,41.37
2023-10-10T09:14:10.097Z,41.34
2023-10-10T09:15:11.659Z,41.47
2023-10-10T09:16:13.190Z,41.11
2023-10-10T09:17:14.709Z,41.34
2023-10-10T09:18:16.292Z,41.13
2023-10-10T09:19:17.942Z,40.63
2023-10-10T09:20:19.496Z,40.88
2023-10-10T09:21:20.976Z,40.73
2023-10-10T09:22:22.467Z,40.72
2023-10-10T09:23:24.477Z,40.46
2023-10-10T09:24:26.109Z,40.45
2023-10-10T09:25:27.688Z,40.13
2023-10-10T09:26:29.194Z,40.18
2023-10-10T09:27:30.708Z,40.36
2023-10-10T09:28:32.173Z,40.33
2023-10-10T09:29:33.666Z,40.26
2023-10-10T09:30:35.247Z,40.21
2023-10-10T09:31:37.735Z,39.69
2023-10-10T09:32:40.948Z,39.66
2023-10-10T09:33:42.456Z,39.06
2023-10-10T09:34:43.936Z,39.01
2023-10-10T09:35:45.442Z,39.25
2023-10-10T09:36:46.939Z,39.15
2023-10-10T09:37:48.425Z,39.21
2023-10-10T09:38:49.968Z,39.30
2023-10-10T09:39:51.536Z,38.90
2023-10-10T09:40:53.005Z,39.29
2023-10-10T09:41:54.447Z,38.71
2023-10-10T09:42:55.956Z,38.68
2023-10-10T09:43:57.545Z,39.17
2023-10-10T09:44:59.066Z,38.99
2023-10-10T09:46:00.582Z,39.24
2023-10-10T09:47:02.078Z,38.94
2023-10-10T09:48:03.713Z,38.78
2023-10-10T09:49:05.257Z,39.29
2023-10-10T09:50:06.916Z,39.32
2023-10-10T09:51:08.407Z,39.23
2023-10-10T09:52:09.873Z,39.24
2023-10-10T09:53:11.499Z,38.96
2023-10-10T09:54:13.108Z,38.61
2023-10-10T09:55:14.681Z,38.79
2023-10-10T09:56:16.240Z,37.95
2023-10-10T09:57:19.098Z,38.02
2023-10-10T09:58:20.783Z,37.97
2023-10-10T09:59:22.411Z,37.65
2023-10-10T10:00:27.662Z,38.13
2023-10-10T10:01:29.432Z,37.76
2023-10-10T10:02:31.001Z,38.49
2023-10-10T10:03:32.694Z,38.16
2023-10-10T10:04:34.324Z,38.31
2023-10-10T10:05:35.851Z,38.75
2023-10-10T10:06:41.261Z,38.98
2023-10-10T10:07:47.752Z,38.90
2023-10-10T10:08:49.289Z,38.29
2023-10-10T10:09:50.746Z,38.91
2023-10-10T10:10:52.197Z,38.72
2023-10-10T10:11:53.646Z,38.67
2023-10-10T10:12:55.140Z,38.74
2023-10-10T10:14:04.962Z,38.69
2023-10-10T10:15:14.458Z,38.53
2023-10-10T10:16:15.989Z,38.66
2023-10-10T10:17:17.479Z,37.85
2023-10-10T10:18:19.068Z,38.52
2023-10-10T10:19:20.633Z,38.14
2023-10-10T10:20:22.213Z,38.48
2023-10-10T10:21:23.694Z,37.91
2023-10-10T10:22:25.166Z,37.76
2023-10-10T10:23:26.819Z,37.94
2023-10-10T10:24:28.450Z,38.00
2023-10-10T10:25:30.061Z,37.85
2023-10-10T10:26:31.856Z,38.56
2023-10-10T10:27:33.398Z,38.54
2023-10-10T10:28:34.881Z,38.46
2023-10-10T10:29:36.449Z,38.33
2023-10-10T10:30:37.962Z,38.42
2023-10-10T10:31:41.195Z,38.32
2023-10-10T10:32:42.995Z,38.10
2023-10-10T10:33:44.471Z,37.94
2023-10-10T10:34:45.930Z,38.52
2023-10-10T10:35:47.430Z,38.29
2023-10-10T10:36:49.017Z,38.42
2023-10-10T10:37:50.474Z,38.24
2023-10-10T10:38:51.993Z,38.52
2023-10-10T10:39:53.515Z,38.48
2023-10-10T10:40:54.961Z,38.46
2023-10-10T10:41:56.436Z,38.54
2023-10-10T10:42:57.948Z,37.73
2023-10-10T10:43:59.483Z,38.12
2023-10-10T10:45:00.986Z,37.76
2023-10-10T10:46:02.496Z,37.68
2023-10-10T10:47:03.966Z,38.05
2023-10-10T10:48:05.524Z,38.07
2023-10-10T10:49:07.430Z,37.50
2023-10-10T10:50:08.998Z,37.51
2023-10-10T10:51:10.486Z,38.11
2023-10-10T10:52:11.988Z,37.95
2023-10-10T10:53:13.616Z,38.05
2023-10-10T10:54:15.270Z,37.49
2023-10-10T10:55:16.909Z,37.77
2023-10-10T10:56:18.425Z,38.17
2023-10-10T10:57:20.000Z,38.22
2023-10-10T10:58:21.482Z,38.13
2023-10-10T10:59:23.050Z,37.92
2023-10-10T11:00:24.611Z,37.98
2023-10-10T11:01:26.184Z,37.37
2023-10-10T11:02:27.758Z,37.89
2023-10-10T11:03:29.385Z,37.95
2023-10-10T11:04:30.996Z,37.40
2023-10-10T11:05:32.617Z,37.96
2023-10-10T11:06:34.126Z,37.91
2023-10-10T11:07:35.587Z,37.72
2023-10-10T11:08:46.476Z,37.41
2023-10-10T11:09:56.332Z,37.40
2023-10-10T11:10:57.808Z,37.90
2023-10-10T11:11:59.339Z,37.17
2023-10-10T11:13:00.845Z,37.14
2023-10-10T11:14:02.446Z,37.59
2023-10-10T11:15:03.919Z,37.70
2023-10-10T11:16:05.622Z,37.82
2023-10-10T11:17:07.124Z,37.68
2023-10-10T11:18:08.718Z,37.58
2023-10-10T11:19:10.350Z,37.80
2023-10-10T11:20:11.927Z,37.27
2023-10-10T11:21:13.437Z,37.41
2023-10-10T11:22:14.909Z,37.92
2023-10-10T11:23:16.389Z,38.04
2023-10-10T11:24:17.985Z,37.53
2023-10-10T11:25:19.509Z,37.93
2023-10-10T11:26:21.123Z,37.39
2023-10-10T11:27:22.672Z,37.83
2023-10-10T11:28:24.120Z,37.28
2023-10-10T11:29:25.669Z,37.68
2023-10-10T11:30:27.128Z,37.43
2023-10-10T11:31:28.697Z,37.45
2023-10-10T11:32:30.299Z,37.61
2023-10-10T11:33:31.990Z,37.75
2023-10-10T11:34:33.579Z,37.40
2023-10-10T11:35:35.054Z,37.17
2023-10-10T11:36:36.550Z,37.73
2023-10-10T11:37:38.006Z,37.67
2023-10-10T11:38:39.494Z,37.22
2023-10-10T11:39:40.993Z,37.27
2023-10-10T11:40:42.465Z,37.28
2023-10-10T11:41:44.031Z,37.49
2023-10-10T11:42:45.507Z,37.19
2023-10-10T11:43:46.983Z,36.97
2023-10-10T11:44:48.551Z,37.24
2023-10-10T11:45:50.171Z,37.08
2023-10-10T11:46:51.710Z,37.38
2023-10-10T11:47:53.254Z,36.90
2023-10-10T11:48:54.774Z,37.07
2023-10-10T11:49:56.321Z,37.07
2023-10-10T11:50:57.892Z,37.02
2023-10-10T11:51:59.487Z,36.51
2023-10-10T11:53:00.968Z,36.66
2023-10-10T11:54:02.482Z,36.63
2023-10-10T11:55:03.953Z,36.89
2023-10-10T11:56:05.437Z,36.92
2023-10-10T11:57:06.904Z,36.73
2023-10-10T11:58:08.424Z,36.57
2023-10-10T11:59:09.907Z,36.93
2023-10-10T12:00:26.667Z,36.16
2023-10-10T12:01:29.351Z,36.88
2023-10-10T12:02:31.189Z,36.51
2023-10-10T12:03:32.874Z,36.18
2023-10-10T12:04:34.431Z,36.25
2023-10-10T12:05:35.936Z,36.37
2023-10-10T12:06:37.578Z,36.12
2023-10-10T12:07:39.111Z,35.91
2023-10-10T12:08:40.620Z,36.17
2023-10-10T12:09:43.499Z,36.17
2023-10-10T12:10:44.962Z,36.05
2023-10-10T12:11:47.791Z,36.21
2023-10-10T12:12:49.342Z,36.10
2023-10-10T12:13:50.801Z,35.95
2023-10-10T12:14:52.308Z,36.37
2023-10-10T12:15:54.726Z,35.82
2023-10-10T12:16:56.176Z,36.35
2023-10-10T12:17:59.165Z,36.11
2023-10-10T12:19:00.832Z,36.36
2023-10-10T12:20:02.327Z,36.40
2023-10-10T12:21:03.983Z,35.97
2023-10-10T12:22:05.492Z,36.17
2023-10-10T12:23:06.989Z,35.65
2023-10-10T12:24:08.477Z,36.18
2023-10-10T12:25:09.952Z,35.62
2023-10-10T12:26:11.455Z,35.90
2023-10-10T12:27:12.929Z,35.75
2023-10-10T12:28:14.404Z,35.74
2023-10-10T12:29:15.904Z,36.28
2023-10-10T12:30:17.360Z,36.17
2023-10-10T12:31:18.858Z,36.02
2023-10-10T12:32:20.846Z,36.10
2023-10-10T12:33:22.626Z,36.29
2023-10-10T12:34:24.223Z,36.10
2023-10-10T12:35:25.732Z,36.36
2023-10-10T12:36:27.209Z,36.11
2023-10-10T12:37:28.800Z,36.23
2023-10-10T12:38:30.302Z,36.06
2023-10-10T12:39:31.766Z,36.27
2023-10-10T12:40:33.231Z,35.83
2023-10-10T12:41:34.768Z,35.29
2023-10-10T12:42:36.298Z,35.20
2023-10-10T12:43:37.778Z,35.40
2023-10-10T12:44:39.272Z,35.73
2023-10-10T12:45:40.785Z,35.70
2023-10-10T12:46:42.273Z,35.31
2023-10-10T12:47:43.766Z,35.07
2023-10-10T12:48:45.371Z,35.59
2023-10-10T12:49:46.936Z,35.52
2023-10-10T12:50:48.454Z,35.91
2023-10-10T12:51:50.013Z,35.52
2023-10-10T12:52:51.576Z,35.37
2023-10-10T12:53:53.605Z,35.20
2023-10-10T12:54:56.161Z,35.59
2023-10-10T12:55:57.619Z,34.98
2023-10-10T12:56:59.133Z,35.59
2023-10-10T12:58:00.655Z,35.92
2023-10-10T12:59:11.340Z,35.69
2023-10-10T13:00:23.578Z,35.72
2023-10-10T13:01:25.071Z,35.94
2023-10-10T13:02:26.683Z,35.60
2023-10-10T13:03:28.456Z,36.20
2023-10-10T13:04:30.361Z,36.16
2023-10-10T13:05:32.428Z,36.23
2023-10-10T13:06:33.980Z,35.91
2023-10-10T13:07:35.447Z,35.89
2023-10-10T13:08:36.944Z,35.18
2023-10-10T13:09:38.467Z,35.50
2023-10-10T13:10:39.968Z,35.38
2023-10-10T13:11:41.463Z,35.65
2023-10-10T13:12:42.982Z,35.56
2023-10-10T13:13:44.723Z,35.64
2023-10-10T13:14:46.222Z,35.55
2023-10-10T13:15:47.743Z,35.42
2023-10-10T13:16:49.223Z,34.85